createdAt,value
2022-11-09T00:00:14.448Z,100030.97
2022-11-09T00:02:43.984Z,100026.53
2022-11-09T00:05:10.554Z,100016.06
2022-11-09T00:07:36.952Z,100011.88
2022-11-09T00:10:03.524Z,100020.75
2022-11-09T00:12:29.937Z,100019.63
2022-11-09T00:14:56.301Z,100004.91
2022-11-09T00:17:22.733Z,100018.34
2022-11-09T00:19:49.067Z,99999.94
2022-11-09T00:22:15.480Z,100005.41
2022-11-09T00:24:41.837Z,100012.75
2022-11-09T00:27:08.209Z,100004.69
2022-11-09T00:29:34.568Z,100012.91
2022-11-09T00:32:00.919Z,100003.19
2022-11-09T00:34:27.291Z,100006.75
2022-11-09T00:36:53.626Z,99999.09
2022-11-09T00:39:20.019Z,99990.22
2022-11-09T00:41:46.399Z,99993.66
2022-11-09T00:44:12.842Z,99987.00
2022-11-09T00:46:39.347Z,99986.13
2022-11-09T00:49:05.920Z,99989.91
2022-11-09T00:51:32.288Z,99982.91
2022-11-09T00:53:58.704Z,99980.34
2022-11-09T00:56:25.144Z,99983.06
2022-11-09T00:58:55.978Z,99993.94
2022-11-09T01:01:22.595Z,99993.94
2022-11-09T01:03:49.023Z,99990.72
2022-11-09T01:06:17.225Z,99990.56
2022-11-09T01:08:43.929Z,99978.59
2022-11-09T01:11:10.325Z,99991.06
2022-11-09T01:13:37.052Z,99989.16
2022-11-09T01:16:14.367Z,99985.94
2022-11-09T01:18:40.790Z,99972.13
2022-11-09T01:21:07.829Z,99978.78
2022-11-09T01:23:34.381Z,99985.09
2022-11-09T01:26:01.805Z,99978.25
2022-11-09T01:28:28.178Z,99976.56
2022-11-09T01:30:54.675Z,99972.38
2022-11-09T01:33:21.447Z,99969.03
2022-11-09T01:35:48.005Z,99966.16
2022-11-09T01:38:14.471Z,99964.47
2022-11-09T01:40:40.867Z,99970.91
2022-11-09T01:43:17.803Z,99976.78
2022-11-09T01:46:21.167Z,99973.63
2022-11-09T01:48:53.661Z,99955.25
2022-11-09T01:51:38.380Z,99963.06
2022-11-09T01:54:10.544Z,99955.25
2022-11-09T01:56:36.893Z,99947.41
2022-11-09T01:59:05.727Z,99949.28
2022-11-09T02:01:32.208Z,99955.25
2022-11-09T02:04:10.791Z,99959.50
2022-11-09T02:06:37.193Z,99956.09
2022-11-09T02:09:12.475Z,99947.25
2022-11-09T02:11:38.945Z,99946.50
2022-11-09T02:14:05.395Z,99949.88
2022-11-09T02:16:31.777Z,99947.00
2022-11-09T02:18:59.104Z,99954.94
2022-11-09T02:21:26.598Z,99961.03
2022-11-09T02:23:53.009Z,99952.38
2022-11-09T02:26:36.907Z,99957.66
2022-11-09T02:29:05.185Z,99968.19
2022-11-09T02:31:33.803Z,99964.78
2022-11-09T02:34:06.577Z,99956.47
2022-11-09T02:36:33.031Z,99950.31
2022-11-09T02:38:59.377Z,99948.63
2022-11-09T02:41:25.880Z,99952.28
2022-11-09T02:43:52.420Z,99955.75
2022-11-09T02:46:26.476Z,99943.44
2022-11-09T02:48:52.822Z,99947.25
2022-11-09T02:51:19.189Z,99942.13
2022-11-09T02:53:45.551Z,99947.59
2022-11-09T02:56:11.919Z,99945.69
2022-11-09T02:58:38.268Z,99942.13
2022-11-09T03:01:04.678Z,99944.59
2022-11-09T03:03:31.083Z,99941.72
2022-11-09T03:05:57.417Z,99946.50
2022-11-09T03:08:23.782Z,99951.38
2022-11-09T03:10:50.255Z,99952.19
2022-11-09T03:13:16.786Z,99960.38
2022-11-09T03:15:43.315Z,99960.53
2022-11-09T03:18:09.690Z,99956.63
2022-11-09T03:20:36.082Z,99963.47
2022-11-09T03:23:02.541Z,99966.09
2022-11-09T03:25:28.957Z,99951.38
2022-11-09T03:27:59.253Z,99950.66
2022-11-09T03:30:25.877Z,99950.66
2022-11-09T03:32:57.805Z,99942.84
2022-11-09T03:35:24.159Z,99941.13
2022-11-09T03:37:50.543Z,99947.09
2022-11-09T03:40:17.368Z,99935.84
2022-11-09T03:42:45.376Z,99933.19
2022-11-09T03:45:15.269Z,99931.44
2022-11-09T03:47:45.402Z,99924.44
2022-11-09T03:50:12.132Z,99925.19
2022-11-09T03:52:38.646Z,99926.31
2022-11-09T03:55:05.643Z,99927.41
2022-11-09T03:57:32.158Z,99922.31
2022-11-09T03:59:58.542Z,99914.56
2022-11-09T04:02:24.951Z,99907.06
2022-11-09T04:04:51.296Z,99910.72
2022-11-09T04:07:17.798Z,99905.28
2022-11-09T04:09:44.219Z,99905.88
2022-11-09T04:12:10.617Z,99904.16
2022-11-09T04:14:36.948Z,99893.00
2022-11-09T04:17:03.320Z,99900.94
2022-11-09T04:19:29.670Z,99908.69
2022-11-09T04:21:56.038Z,99912.88
2022-11-09T04:24:22.408Z,99918.22
2022-11-09T04:26:48.828Z,99911.16
2022-11-09T04:29:15.193Z,99904.00
2022-11-09T04:31:41.561Z,99895.50
2022-11-09T04:34:08.120Z,99918.31
2022-11-09T04:36:34.543Z,99905.88
2022-11-09T04:39:00.926Z,99910.22
2022-11-09T04:41:27.746Z,99897.09
2022-11-09T04:43:54.115Z,99893.94
2022-11-09T04:46:20.448Z,99899.22
2022-11-09T04:48:47.094Z,99893.19
2022-11-09T04:51:13.445Z,99889.63
2022-11-09T04:53:40.031Z,99889.78
2022-11-09T04:56:06.885Z,99885.44
2022-11-09T04:58:33.436Z,99881.09
2022-11-09T05:01:12.843Z,99887.31
2022-11-09T05:03:39.380Z,99876.94
2022-11-09T05:06:25.855Z,99887.50
2022-11-09T05:08:54.310Z,99877.09
2022-11-09T05:11:20.942Z,99869.59
2022-11-09T05:13:47.589Z,99866.22
2022-11-09T05:16:14.122Z,99856.75
2022-11-09T05:18:40.535Z,99849.66
2022-11-09T05:21:06.902Z,99844.41
2022-11-09T05:23:51.841Z,99843.72
2022-11-09T05:26:18.208Z,99830.81
2022-11-09T05:28:44.938Z,99827.38
2022-11-09T05:31:11.319Z,99811.56
2022-11-09T05:33:37.669Z,99794.97
2022-11-09T05:36:04.198Z,99781.94
2022-11-09T05:38:30.609Z,99754.91
2022-11-09T05:40:57.070Z,99750.44
2022-11-09T05:43:26.487Z,99731.25
2022-11-09T05:45:52.902Z,99717.31
2022-11-09T05:48:19.273Z,99702.41
2022-11-09T05:50:45.650Z,99701.66
2022-11-09T05:53:12.191Z,99687.88
2022-11-09T05:55:38.765Z,99675.63
2022-11-09T05:58:05.321Z,99666.06
2022-11-09T06:00:31.809Z,99640.75
2022-11-09T06:03:08.028Z,99636.50
2022-11-09T06:05:35.283Z,99624.25
2022-11-09T06:08:05.794Z,99620.94
2022-11-09T06:10:32.336Z,99611.31
2022-11-09T06:12:58.708Z,99599.03
2022-11-09T06:15:25.067Z,99585.13
2022-11-09T06:17:55.359Z,99571.19
2022-11-09T06:20:21.876Z,99562.50
2022-11-09T06:23:02.746Z,99550.44
2022-11-09T06:25:31.544Z,99526.81
2022-11-09T06:27:58.319Z,99517.13
2022-11-09T06:30:24.779Z,99506.56
2022-11-09T06:32:51.159Z,99501.13
2022-11-09T06:35:17.586Z,99501.31
2022-11-09T06:37:44.330Z,99484.75
2022-11-09T06:40:12.548Z,99463.66
2022-11-09T06:42:38.945Z,99445.22
2022-11-09T06:45:05.726Z,99453.00
2022-11-09T06:47:32.076Z,99435.50
2022-11-09T06:49:58.458Z,99417.91
2022-11-09T06:52:25.962Z,99387.41
2022-11-09T06:54:52.317Z,99376.09
2022-11-09T06:57:18.697Z,99354.28
2022-11-09T06:59:45.065Z,99348.25
2022-11-09T07:02:14.852Z,99322.75
2022-11-09T07:04:41.233Z,99320.00
2022-11-09T07:07:07.746Z,99325.94
2022-11-09T07:09:34.158Z,99338.28
2022-11-09T07:12:00.776Z,99317.19
2022-11-09T07:14:27.162Z,99294.41
2022-11-09T07:16:53.742Z,99293.56
2022-11-09T07:19:20.198Z,99285.56
2022-11-09T07:21:46.563Z,99282.72
2022-11-09T07:24:12.906Z,99282.72
2022-11-09T07:26:39.258Z,99292.34
2022-11-09T07:29:05.621Z,99302.69
2022-11-09T07:31:32.002Z,99303.47
2022-11-09T07:34:01.196Z,99300.81
2022-11-09T07:36:27.562Z,99291.31
2022-11-09T07:38:53.944Z,99296.59
2022-11-09T07:41:20.369Z,99276.53
2022-11-09T07:43:46.762Z,99267.88
2022-11-09T07:46:13.166Z,99267.88
2022-11-09T07:48:39.527Z,99279.19
2022-11-09T07:51:06.050Z,99290.63
2022-11-09T07:53:32.525Z,99294.03
2022-11-09T07:56:02.626Z,99295.72
2022-11-09T07:58:29.086Z,99297.63
2022-11-09T08:00:55.567Z,99302.69
2022-11-09T08:03:22.572Z,99326.97
2022-11-09T08:05:49.406Z,99348.81
2022-11-09T08:08:16.487Z,99362.97
2022-11-09T08:10:43.656Z,99370.50
2022-11-09T08:13:11.884Z,99391.44
2022-11-09T08:15:38.353Z,99416.75
2022-11-09T08:18:06.439Z,99434.91
2022-11-09T08:20:33.315Z,99444.34
2022-11-09T08:23:03.992Z,99453.75
2022-11-09T08:25:33.205Z,99460.56
2022-11-09T08:27:59.564Z,99492.78
2022-11-09T08:30:26.035Z,99515.19
2022-11-09T08:32:52.585Z,99529.88
2022-11-09T08:35:20.637Z,99541.94
2022-11-09T08:37:48.455Z,99549.59
2022-11-09T08:40:16.199Z,99562.50
2022-11-09T08:42:42.666Z,99567.59
2022-11-09T08:45:09.688Z,99569.31
2022-11-09T08:47:36.145Z,99572.69
2022-11-09T08:50:04.465Z,99583.06
2022-11-09T08:52:37.113Z,99595.31
2022-11-09T08:55:03.909Z,99591.75
2022-11-09T08:57:30.523Z,99582.88
2022-11-09T08:59:56.922Z,99586.28
2022-11-09T09:02:23.268Z,99605.69
2022-11-09T09:04:49.653Z,99613.44
2022-11-09T09:07:16.093Z,99613.44
2022-11-09T09:09:42.505Z,99621.16
2022-11-09T09:12:09.339Z,99635.13
2022-11-09T09:14:35.832Z,99639.44
2022-11-09T09:17:07.680Z,99640.19
2022-11-09T09:19:34.790Z,99641.06
2022-11-09T09:22:01.467Z,99614.00
2022-11-09T09:24:27.935Z,99631.53
2022-11-09T09:26:54.309Z,99653.41
2022-11-09T09:29:20.690Z,99662.84
2022-11-09T09:31:47.044Z,99662.66
2022-11-09T09:34:16.241Z,99657.28
2022-11-09T09:36:47.588Z,99655.41
2022-11-09T09:39:14.595Z,99664.00
2022-11-09T09:41:55.007Z,99674.19
2022-11-09T09:44:42.831Z,99689.88
2022-11-09T09:47:17.300Z,99686.06
2022-11-09T09:49:55.217Z,99702.41
2022-11-09T09:53:10.620Z,99725.03
2022-11-09T09:55:39.050Z,99729.16
2022-11-09T09:58:13.580Z,99748.38
2022-11-09T10:00:39.966Z,99770.00
2022-11-09T10:03:06.468Z,99772.38
2022-11-09T10:06:04.537Z,99787.88
2022-11-09T10:09:01.859Z,99785.44
2022-11-09T10:11:35.789Z,99784.88
2022-11-09T10:14:24.902Z,99809.72
2022-11-09T10:17:24.792Z,99795.47
2022-11-09T10:20:15.550Z,99788.66
2022-11-09T10:22:46.510Z,99839.84
2022-11-09T10:28:20.609Z,99829.28
2022-11-09T10:30:47.189Z,99845.31
2022-11-09T10:33:16.733Z,99779.88
2022-11-09T10:35:47.504Z,99157.53
2022-11-09T10:38:21.105Z,98404.88
2022-11-09T10:41:31.272Z,97601.63
2022-11-09T10:43:57.739Z,97161.00
2022-11-09T10:46:25.105Z,96917.50
2022-11-09T10:48:52.454Z,96810.16
2022-11-09T10:51:38.744Z,96896.53
2022-11-09T10:54:26.442Z,96858.66
2022-11-09T10:57:05.893Z,96690.81
2022-11-09T10:59:57.571Z,96373.69
2022-11-09T11:02:27.164Z,96258.94
2022-11-09T11:04:59.312Z,94938.69
2022-11-09T11:07:25.725Z,86274.53
2022-11-09T11:09:52.106Z,83067.13
2022-11-09T11:12:20.386Z,82777.44
2022-11-09T11:14:46.746Z,83596.06
2022-11-09T11:17:24.874Z,83616.53
2022-11-09T11:19:51.246Z,83908.44
2022-11-09T11:22:22.689Z,83655.59
2022-11-09T11:24:56.384Z,83571.28
2022-11-09T11:27:28.515Z,83806.47
2022-11-09T11:30:11.627Z,83864.34
2022-11-09T11:32:38.059Z,82473.34
2022-11-09T11:35:05.839Z,82721.25
2022-11-09T11:38:01.066Z,82918.47
2022-11-09T11:40:34.713Z,82978.19
2022-11-09T11:43:13.643Z,83018.13
2022-11-09T11:45:49.881Z,83097.19
2022-11-09T11:48:27.976Z,83134.75
2022-11-09T11:50:57.306Z,83143.03
2022-11-09T11:53:45.529Z,83143.25
2022-11-09T11:56:17.899Z,83154.63
2022-11-09T11:59:06.113Z,83161.75
2022-11-09T12:01:47.749Z,83100.69
2022-11-09T12:04:39.359Z,83074.25
2022-11-09T12:07:31.805Z,83068.66
2022-11-09T12:10:32.524Z,83095.03
2022-11-09T12:13:04.653Z,83078.06
2022-11-09T12:15:33.964Z,83057.03
2022-11-09T12:18:26.418Z,83067.94
2022-11-09T12:20:55.535Z,83041.19
2022-11-09T12:23:37.956Z,83025.34
2022-11-09T12:26:24.281Z,83113.81
2022-11-09T12:29:07.625Z,83136.56
2022-11-09T12:31:48.652Z,83290.41
2022-11-09T12:34:27.884Z,83499.84
2022-11-09T12:37:04.733Z,83839.94
2022-11-09T12:39:39.088Z,84255.06
2022-11-09T12:42:16.157Z,84663.13
2022-11-09T12:44:58.275Z,85037.56
2022-11-09T12:47:30.719Z,85543.09
2022-11-09T12:49:57.121Z,85967.53
2022-11-09T12:52:27.992Z,86413.94
2022-11-09T12:54:54.374Z,83439.66
2022-11-09T12:57:25.477Z,81472.13
2022-11-09T12:59:53.753Z,79036.03
2022-11-09T13:02:20.083Z,77854.44
2022-11-09T13:04:55.047Z,78695.88
2022-11-09T13:07:49.423Z,79857.78
2022-11-09T13:10:29.362Z,83595.72
2022-11-09T13:13:07.875Z,83509.41
2022-11-09T13:15:34.685Z,83505.59
2022-11-09T13:18:35.644Z,83362.06
2022-11-09T13:21:21.061Z,83127.88
2022-11-09T13:24:00.553Z,82951.63
2022-11-09T13:26:31.368Z,82700.13
2022-11-09T13:29:06.842Z,82316.81
2022-11-09T13:32:11.769Z,81975.84
2022-11-09T13:34:50.053Z,81798.06
2022-11-09T13:37:41.256Z,81769.22
2022-11-09T13:40:32.621Z,81887.06
2022-11-09T13:43:05.731Z,82062.78
2022-11-09T13:45:47.165Z,82298.84
2022-11-09T13:48:33.481Z,82565.28
2022-11-09T13:51:03.110Z,82788.53
2022-11-09T13:53:53.017Z,83132.03
2022-11-09T13:56:38.240Z,83907.19
2022-11-09T13:59:34.675Z,84995.56
2022-11-09T14:02:01.876Z,86021.13
2022-11-09T14:04:29.930Z,86564.44
2022-11-09T14:06:59.769Z,86793.94
2022-11-09T14:09:26.225Z,86974.69
2022-11-09T14:12:11.331Z,87173.09
2022-11-09T14:15:04.936Z,87350.13
2022-11-09T14:17:46.109Z,87480.66
2022-11-09T14:20:36.810Z,87565.44
2022-11-09T14:23:03.274Z,87654.69
2022-11-09T14:25:30.885Z,87702.31
2022-11-09T14:27:57.398Z,87715.09
2022-11-09T14:30:28.651Z,87683.22
2022-11-09T14:32:55.816Z,87671.59
2022-11-09T14:35:32.794Z,87615.72
2022-11-09T14:38:00.142Z,87579.00
2022-11-09T14:40:30.175Z,87576.00
2022-11-09T14:43:16.690Z,87532.13
2022-11-09T14:45:54.269Z,87495.00
2022-11-09T14:48:22.044Z,87561.03
2022-11-09T14:50:49.003Z,87632.63
2022-11-09T14:53:44.716Z,87772.06
2022-11-09T14:56:17.889Z,87895.41
2022-11-09T14:58:44.333Z,88065.22
2022-11-09T15:01:28.747Z,88318.28
2022-11-09T15:04:16.986Z,88646.72
2022-11-09T15:06:51.127Z,89046.81
2022-11-09T15:09:22.295Z,89414.72
2022-11-09T15:11:48.811Z,89743.09
2022-11-09T15:14:32.550Z,90117.47
2022-11-09T15:17:05.015Z,90372.59
2022-11-09T15:19:37.936Z,90650.16
2022-11-09T15:22:04.304Z,90865.91
2022-11-09T15:24:46.341Z,90977.53
2022-11-09T15:27:33.117Z,91062.56
2022-11-09T15:29:59.473Z,91099.31
2022-11-09T15:32:26.115Z,91110.91
2022-11-09T15:34:56.406Z,91098.38
2022-11-09T15:37:25.889Z,91142.31
2022-11-09T15:39:52.279Z,91192.00
2022-11-09T15:42:18.880Z,91209.84
2022-11-09T15:44:45.296Z,91242.97
2022-11-09T15:47:31.496Z,91305.47
2022-11-09T15:49:59.526Z,91365.41
2022-11-09T15:52:25.920Z,91454.34
2022-11-09T15:54:52.262Z,91550.16
2022-11-09T15:57:19.368Z,91672.47
2022-11-09T15:59:46.755Z,91812.13
2022-11-09T16:02:16.228Z,91869.84
2022-11-09T16:04:42.726Z,91978.22
2022-11-09T16:07:09.983Z,92104.72
2022-11-09T16:09:38.917Z,92188.41
2022-11-09T16:12:05.545Z,92291.25
2022-11-09T16:14:32.405Z,92310.13
2022-11-09T16:16:58.758Z,92393.28
2022-11-09T16:19:25.168Z,92404.31
2022-11-09T16:21:52.471Z,92478.53
2022-11-09T16:24:18.847Z,92534.69
2022-11-09T16:26:45.604Z,92588.16
2022-11-09T16:29:12.452Z,92665.28
2022-11-09T16:31:51.460Z,92663.63
2022-11-09T16:34:18.713Z,92695.34
2022-11-09T16:36:50.938Z,92733.13
2022-11-09T16:39:20.373Z,92739.91
2022-11-09T16:41:50.314Z,92689.22
2022-11-09T16:44:18.621Z,92700.22
2022-11-09T16:46:45.487Z,92721.19
2022-11-09T16:49:12.028Z,92801.44
2022-11-09T16:51:38.437Z,92824.50
2022-11-09T16:54:04.844Z,92819.72
2022-11-09T16:56:33.602Z,92812.91
2022-11-09T16:59:00.612Z,92860.03
2022-11-09T17:01:27.054Z,92924.63
2022-11-09T17:03:53.535Z,92960.88
2022-11-09T17:06:19.906Z,92978.66
2022-11-09T17:08:46.253Z,92972.31
2022-11-09T17:11:14.728Z,93046.84
2022-11-09T17:13:41.265Z,93087.69
2022-11-09T17:16:10.510Z,93087.69
2022-11-09T17:18:37.801Z,93116.00
2022-11-09T17:21:08.653Z,93096.59
2022-11-09T17:23:35.021Z,93190.25
2022-11-09T17:26:02.764Z,93235.59
2022-11-09T17:28:29.414Z,93325.47
2022-11-09T17:30:55.882Z,93465.34
2022-11-09T17:33:23.037Z,93531.97
2022-11-09T17:36:01.950Z,93580.75
2022-11-09T17:38:28.378Z,93621.56
2022-11-09T17:41:10.462Z,93655.66
2022-11-09T17:43:38.441Z,93691.81
2022-11-09T17:46:06.346Z,93709.59
2022-11-09T17:48:33.469Z,93709.34
2022-11-09T17:50:59.922Z,93699.53
2022-11-09T17:53:26.505Z,93640.81
2022-11-09T17:55:52.976Z,93475.91
2022-11-09T17:58:19.779Z,93493.13
2022-11-09T18:00:46.572Z,93609.66
2022-11-09T18:03:12.990Z,93747.63
2022-11-09T18:05:40.063Z,93896.22
2022-11-09T18:08:08.468Z,93884.56
2022-11-09T18:10:35.800Z,94012.47
2022-11-09T18:13:02.223Z,94071.97
2022-11-09T18:15:28.603Z,94174.06
2022-11-09T18:17:54.981Z,94256.94
2022-11-09T18:20:21.494Z,94334.81
2022-11-09T18:22:50.687Z,94440.16
2022-11-09T18:25:17.303Z,94461.31
2022-11-09T18:27:43.659Z,94529.13
2022-11-09T18:30:10.540Z,94579.94
2022-11-09T18:32:36.915Z,94623.53
2022-11-09T18:35:03.535Z,94669.09
2022-11-09T18:37:33.928Z,94644.28
2022-11-09T18:40:00.334Z,94503.66
2022-11-09T18:42:26.711Z,94470.97
2022-11-09T18:44:53.085Z,94267.28
2022-11-09T18:47:20.395Z,94408.41
2022-11-09T18:49:46.744Z,94388.69
2022-11-09T18:52:13.174Z,94361.22
2022-11-09T18:54:39.574Z,94464.47
2022-11-09T18:57:06.008Z,94583.25
2022-11-09T18:59:32.359Z,94707.72
2022-11-09T19:01:58.722Z,94613.75
2022-11-09T19:04:25.077Z,94729.13
2022-11-09T19:06:51.549Z,94849.94
2022-11-09T19:09:30.398Z,94957.88
2022-11-09T19:11:57.099Z,95001.81
2022-11-09T19:14:23.666Z,95025.63
2022-11-09T19:16:50.045Z,95013.03
2022-11-09T19:19:16.553Z,95060.91
2022-11-09T19:21:51.059Z,95075.94
2022-11-09T19:24:18.968Z,95094.50
2022-11-09T19:26:45.713Z,95166.91
2022-11-09T19:29:13.338Z,95208.72
2022-11-09T19:31:43.359Z,95210.69
2022-11-09T19:34:10.948Z,95200.19
2022-11-09T19:36:37.418Z,95200.91
2022-11-09T19:39:04.125Z,95243.50
2022-11-09T19:41:30.584Z,95308.34
2022-11-09T19:44:00.328Z,95321.47
2022-11-09T19:46:27.828Z,95355.56
2022-11-09T19:48:54.185Z,95333.25
2022-11-09T19:51:20.556Z,95309.38
2022-11-09T19:53:54.388Z,95323.94
2022-11-09T19:56:21.696Z,95371.34
2022-11-09T19:58:49.456Z,95422.41
2022-11-09T20:01:15.889Z,95474.50
2022-11-09T20:03:42.336Z,95503.69
2022-11-09T20:06:08.744Z,95557.97
2022-11-09T20:08:35.842Z,95572.88
2022-11-09T20:11:06.370Z,95549.94
2022-11-09T20:13:32.757Z,95550.25
2022-11-09T20:16:06.537Z,95504.56
2022-11-09T20:18:39.321Z,95526.38
2022-11-09T20:21:08.618Z,95578.09
2022-11-09T20:23:35.010Z,95622.69
2022-11-09T20:26:05.487Z,95662.34
2022-11-09T20:28:31.938Z,95692.81
2022-11-09T20:30:58.371Z,95670.38
2022-11-09T20:33:24.738Z,95718.41
2022-11-09T20:35:55.151Z,95741.03
2022-11-09T20:38:21.894Z,95734.94
2022-11-09T20:40:59.095Z,95756.75
2022-11-09T20:43:26.048Z,95778.22
2022-11-09T20:45:53.002Z,95790.19
2022-11-09T20:48:51.657Z,95804.59
2022-11-09T20:51:06.898Z,95805.44
2022-11-09T20:53:33.461Z,95778.72
2022-11-09T20:55:59.854Z,95763.31
2022-11-09T20:58:27.337Z,95753.66
2022-11-09T21:01:07.997Z,95695.44
2022-11-09T21:03:34.552Z,95699.72
2022-11-09T21:06:01.879Z,95678.06
2022-11-09T21:08:28.453Z,95662.66
2022-11-09T21:10:54.903Z,95662.34
2022-11-09T21:13:21.856Z,95622.00
2022-11-09T21:15:48.298Z,95607.94
2022-11-09T21:18:14.806Z,95594.63
2022-11-09T21:20:41.324Z,95568.38
2022-11-09T21:23:12.506Z,95560.34
2022-11-09T21:25:57.977Z,95568.50
2022-11-09T21:28:43.195Z,95549.16
2022-11-09T21:31:09.544Z,95575.06
2022-11-09T21:33:36.009Z,95586.84
2022-11-09T21:36:09.538Z,95590.94
2022-11-09T21:38:36.665Z,95544.03
2022-11-09T21:41:23.967Z,95546.84
2022-11-09T21:43:56.727Z,95527.50
2022-11-09T21:46:23.512Z,95564.84
2022-11-09T21:48:50.514Z,95587.47
2022-11-09T21:51:16.945Z,95635.81
2022-11-09T21:53:43.296Z,95674.69
2022-11-09T21:56:09.683Z,95669.06
2022-11-09T21:58:36.053Z,95670.25
2022-11-09T22:01:06.666Z,95664.19
2022-11-09T22:03:33.797Z,95659.13
2022-11-09T22:06:00.263Z,95664.19
2022-11-09T22:08:26.648Z,95646.78
2022-11-09T22:10:53.150Z,95670.06
2022-11-09T22:13:38.146Z,95676.16
2022-11-09T22:16:09.340Z,95669.28
2022-11-09T22:18:55.481Z,95705.50
2022-11-09T22:21:22.922Z,95698.59
2022-11-09T22:23:49.365Z,95716.81
2022-11-09T22:26:15.859Z,95712.72
2022-11-09T22:28:42.333Z,95702.88
2022-11-09T22:31:08.989Z,95669.75
2022-11-09T22:33:35.496Z,95657.63
2022-11-09T22:36:03.667Z,95689.09
2022-11-09T22:38:33.654Z,95696.63
2022-11-09T22:41:03.886Z,95701.88
2022-11-09T22:43:38.004Z,95709.09
2022-11-09T22:46:11.627Z,95728.09
2022-11-09T22:48:38.621Z,95739.91
2022-11-09T22:51:05.146Z,95751.22
2022-11-09T22:53:31.833Z,95755.97
2022-11-09T22:55:59.387Z,95749.09
2022-11-09T22:58:25.978Z,95754.34
2022-11-09T23:00:52.440Z,95721.56
2022-11-09T23:03:19.417Z,95719.94
2022-11-09T23:05:46.354Z,95729.63
2022-11-09T23:08:12.792Z,95724.53
2022-11-09T23:10:39.235Z,95711.44
2022-11-09T23:13:05.867Z,95706.97
2022-11-09T23:15:32.280Z,95715.00
2022-11-09T23:18:17.230Z,95718.63
2022-11-09T23:20:43.715Z,95692.41
2022-11-09T23:23:10.130Z,95696.84
2022-11-09T23:25:56.337Z,95683.72
2022-11-09T23:28:24.108Z,95696.84
2022-11-09T23:30:50.475Z,95723.88
2022-11-09T23:33:16.847Z,95729.13
2022-11-09T23:35:43.239Z,95697.63
2022-11-09T23:38:09.758Z,95698.00
2022-11-09T23:40:36.178Z,95736.38
2022-11-09T23:43:07.453Z,95723.88
2022-11-09T23:45:34.855Z,95703.25
2022-11-09T23:48:01.339Z,95682.25
2022-11-09T23:50:27.893Z,95691.09
2022-11-09T23:52:58.242Z,95684.22
2022-11-09T23:55:25.525Z,95686.22
2022-11-09T23:57:51.870Z,95682.13
